Zhytomyr, Ukraine
Current Conditions -  °F | °C
As of 10:00 PM on Saturday 20 Dec 2014 (Local Time) from UKKM Reporting Station
Clear Clear  
Wind Chill: -2°   Ceiling: Unl
Heat Index:   Visibility: 6mi
Dew Point:   Wind: 9mph
Humidity: 93%   Direction: 240°WSW
Pressure: 29.83"   Gusts: NA
Location:  50.25°N, 28.67°E
Report Text: UKKM 201900Z AUTO 24004MPS 9999 NCD 02/01 Q1010
Loading
Personal Weather Stations






























Interactive Weather Map New forecast layout! Learn more

10-Day Weather Forecast

Advertisements
Track Severe Weather on mobile